Flight Track Log - Related Links

Times and Time Zones

All times are in EDT time to prevent confusion due to time zone crossing. See the KAP2826 flight status page for this flight to view local times or setup timezone preferences in your user account.

Time Position Orientation Groundspeed Altitude Reporting Facility
EDT Latitude Longitude Course Direction KTS MPH feet Rate Location/Type
Tue 09:18:26 AM 42.3500 -71.0167 360° North 125 144 500  Level KA90
Tue 09:18:44 AM 42.3500 -71.0167 216° Southwest 115 132 700 565 Climbing KA90
Tue 09:19:51 AM 42.3167 -71.0500 216° Southwest 118 136 1,300 581 Climbing KA90
Tue 09:20:48 AM 42.3000 -71.0833 236° Southwest 121 139 1,900 564 Climbing KA90
Tue 09:21:48 AM 42.2667 -71.1167 217° Southwest 124 143 2,400 500 Climbing KA90
Tue 09:22:36 AM 42.2500 -71.1333 217° Southwest 125 144 2,800 474 Climbing KA90
Tue 09:23:42 AM 42.2167 -71.1000 143° Southeast 128 147 3,300 469 Climbing KA90
Tue 09:24:44 AM 42.1833 -71.0833 160° South 130 150 3,800 488 Climbing KA90
Tue 09:25:45 AM 42.1500 -71.0500 143° Southeast 134 154 4,300 454 Climbing KA90
Tue 09:26:43 AM 42.1167 -71.0167 143° Southeast 138 159 4,700 350 Climbing KA90
Tue 09:27:45 AM 42.1000 -70.9833 124° Southeast 139 160 5,000 151 Climbing KA90
Tue 09:28:42 AM 42.0667 -70.9500 143° Southeast 154 177 5,000  Level KA90
Tue 09:29:39 AM 42.0333 -70.9167 143° Southeast 154 177 5,000  Level KA90
Tue 09:31:00 AM 41.9948 -70.8737 140° Southeast  Level Estimated
Tue 09:38:00 AM 41.7945 -70.6515 140° Southeast  Level Estimated
Tue 09:39:00 AM 41.7658 -70.6199 141° Southeast  Level Estimated
Tue 09:40:00 AM 41.7372 -70.5883 141° Southeast  Level Estimated
Tue 09:41:00 AM 41.7085 -70.5568 141° Southeast  Level Estimated
Tue 09:42:00 AM 41.6798 -70.5252 141° Southeast  Level Estimated
Tue 09:43:00 AM 41.6511 -70.4937 141° Southeast  Level Estimated
Tue 09:44:00 AM 41.6225 -70.4622 141° Southeast  Level Estimated
Tue 09:45:00 AM 41.5938 -70.4308 141° Southeast  Level Estimated
Tue 09:46:00 AM 41.5650 -70.3994 141° Southeast  Level Estimated
Tue 09:47:00 AM 41.5363 -70.3680 141° Southeast  Level Estimated
Tue 09:48:00 AM 41.5076 -70.3366 141° Southeast  Level Estimated
Tue 09:49:00 AM 41.4789 -70.3053 141° Southeast  Level Estimated
Tue 09:50:00 AM 41.4501 -70.2739 141° Southeast  Level Estimated
Tue 09:51:00 AM 41.4214 -70.2427 141° Southeast  Level Estimated
Tue 09:52:00 AM 41.3926 -70.2114 141° Southeast  Level Estimated
Tue 09:53:00 AM 41.3639 -70.1802 141° Southeast  Level Estimated
Tue 09:54:00 AM 41.3351 -70.1490 141° Southeast  Level Estimated
Tue 09:55:00 AM 41.3063 -70.1178 141° Southeast  Level Estimated
Tue 09:56:00 AM 41.2775 -70.0867 141° Southeast  Level Estimated
Tue 09:57:00 AM 41.2531 -70.0603 141° Southeast  Level Estimated
Tue 09:58:00 AM 41.2531 -70.0603 72° East  Level Estimated
Tue 09:59:00 AM 41.2531 -70.0603 72° East  Level Estimated
Tue 10:00:00 AM 41.2531 -70.0603 72° East  Level Estimated
Tue 10:01:00 AM 41.2531 -70.0603 72° East  Level Estimated
Tue 10:02:00 AM 41.2531 -70.0603 72° East  Level Estimated
Tue 10:03:00 AM 41.2531 -70.0603 72° East  Level Estimated
Tue 10:04:00 AM 41.2531 -70.0603 72° East  Level Estimated

Login

Don't have an account? Register now (free) for customized features, flight alerts, and more!